sensor_id;sensor_type;location;lat;lon;timestamp;pressure;altitude;pressure_sealevel;temperature;humidity
76106;BME280;64832;45.274;5.880;2022-12-07T00:03:36;99072.75;;;18.58;52.55
76106;BME280;64832;45.274;5.880;2022-12-07T00:06:03;99068.13;;;18.59;53.03
76106;BME280;64832;45.274;5.880;2022-12-07T00:08:30;99061.53;;;18.55;52.88
76106;BME280;64832;45.274;5.880;2022-12-07T00:11:01;99064.00;;;18.56;53.08
76106;BME280;64832;45.274;5.880;2022-12-07T00:13:27;99060.84;;;18.59;53.10
76106;BME280;64832;45.274;5.880;2022-12-07T00:15:52;99048.47;;;18.52;53.10
76106;BME280;64832;45.274;5.880;2022-12-07T00:18:17;99056.50;;;18.58;53.27
76106;BME280;64832;45.274;5.880;2022-12-07T00:20:43;99051.41;;;18.62;53.25
76106;BME280;64832;45.274;5.880;2022-12-07T00:23:08;99064.13;;;18.61;53.28
76106;BME280;64832;45.274;5.880;2022-12-07T00:25:33;99054.94;;;18.62;53.37
76106;BME280;64832;45.274;5.880;2022-12-07T00:27:59;99042.94;;;18.58;53.54
76106;BME280;64832;45.274;5.880;2022-12-07T06:30:29;98949.47;;;18.03;56.29
76106;BME280;64832;45.274;5.880;2022-12-07T06:32:54;98949.09;;;17.99;56.13
76106;BME280;64832;45.274;5.880;2022-12-07T06:35:20;98954.19;;;18.07;56.24
76106;BME280;64832;45.274;5.880;2022-12-07T06:37:45;98956.41;;;18.10;56.07
76106;BME280;64832;45.274;5.880;2022-12-07T06:40:11;98959.13;;;18.10;56.10
76106;BME280;64832;45.274;5.880;2022-12-07T06:42:36;98956.03;;;18.07;55.92
76106;BME280;64832;45.274;5.880;2022-12-07T06:45:02;98953.81;;;18.04;56.16
76106;BME280;64832;45.274;5.880;2022-12-07T06:47:27;98956.38;;;17.99;56.15
76106;BME280;64832;45.274;5.880;2022-12-07T06:49:52;98962.84;;;17.98;55.70
76106;BME280;64832;45.274;5.880;2022-12-07T06:52:18;98957.69;;;17.96;56.11
76106;BME280;64832;45.274;5.880;2022-12-07T06:54:43;98968.50;;;17.96;56.04
76106;BME280;64832;45.274;5.880;2022-12-07T06:57:10;98960.84;;;17.93;55.73
76106;BME280;64832;45.274;5.880;2022-12-07T06:59:35;98953.78;;;17.92;55.70
76106;BME280;64832;45.274;5.880;2022-12-07T07:02:00;98961.31;;;17.90;56.05
76106;BME280;64832;45.274;5.880;2022-12-07T07:04:26;98957.78;;;17.90;55.68
76106;BME280;64832;45.274;5.880;2022-12-07T07:06:51;98953.44;;;17.89;55.64
76106;BME280;64832;45.274;5.880;2022-12-07T07:09:17;98942.81;;;17.87;55.49
76106;BME280;64832;45.274;5.880;2022-12-07T07:11:42;98959.06;;;17.87;55.54
76106;BME280;64832;45.274;5.880;2022-12-07T07:14:07;98955.78;;;17.85;55.37
76106;BME280;64832;45.274;5.880;2022-12-07T07:16:33;98946.13;;;17.78;55.28
76106;BME280;64832;45.274;5.880;2022-12-07T07:18:58;98956.81;;;17.84;55.43
76106;BME280;64832;45.274;5.880;2022-12-07T07:21:23;98960.59;;;17.83;55.44
76106;BME280;64832;45.274;5.880;2022-12-07T07:23:49;98958.94;;;17.82;55.45
76106;BME280;64832;45.274;5.880;2022-12-07T07:26:14;98960.22;;;17.80;55.49
76106;BME280;64832;45.274;5.880;2022-12-07T07:28:40;98970.81;;;17.81;55.38
76106;BME280;64832;45.274;5.880;2022-12-07T07:31:05;98967.31;;;17.81;55.15
76106;BME280;64832;45.274;5.880;2022-12-07T07:33:30;98972.72;;;17.81;55.31
76106;BME280;64832;45.274;5.880;2022-12-07T07:35:56;98966.69;;;17.79;54.99
76106;BME280;64832;45.274;5.880;2022-12-07T07:38:21;98973.75;;;17.80;55.02
76106;BME280;64832;45.274;5.880;2022-12-07T07:40:47;98976.47;;;17.80;55.07
76106;BME280;64832;45.274;5.880;2022-12-07T07:43:12;98974.00;;;17.78;55.35
76106;BME280;64832;45.274;5.880;2022-12-07T07:45:37;98977.50;;;17.79;55.25
76106;BME280;64832;45.274;5.880;2022-12-07T07:48:03;98974.00;;;17.78;55.15
76106;BME280;64832;45.274;5.880;2022-12-07T07:50:28;98975.13;;;17.59;48.98
76106;BME280;64832;45.274;5.880;2022-12-07T07:52:54;98966.81;;;16.88;48.02
76106;BME280;64832;45.274;5.880;2022-12-07T07:55:19;98978.22;;;16.22;47.60
76106;BME280;64832;45.274;5.880;2022-12-07T07:57:44;98967.00;;;15.69;47.75
76106;BME280;64832;45.274;5.880;2022-12-07T08:00:12;98979.22;;;15.27;47.64
76106;BME280;64832;45.274;5.880;2022-12-07T08:02:38;98968.56;;;14.95;47.82
76106;BME280;64832;45.274;5.880;2022-12-07T08:05:04;98971.13;;;14.70;48.01
76106;BME280;64832;45.274;5.880;2022-12-07T08:07:29;98974.91;;;14.49;47.85
76106;BME280;64832;45.274;5.880;2022-12-07T08:09:55;98968.47;;;14.63;52.09
76106;BME280;64832;45.274;5.880;2022-12-07T08:12:20;98982.41;;;15.11;52.99
76106;BME280;64832;45.274;5.880;2022-12-07T08:14:46;98981.81;;;15.54;52.70
76106;BME280;64832;45.274;5.880;2022-12-07T08:17:11;98984.31;;;15.86;52.63
76106;BME280;64832;45.274;5.880;2022-12-07T08:19:37;98982.91;;;16.09;52.32
76106;BME280;64832;45.274;5.880;2022-12-07T08:22:03;98990.25;;;16.26;52.51
76106;BME280;64832;45.274;5.880;2022-12-07T08:24:28;98990.97;;;16.40;52.06
76106;BME280;64832;45.274;5.880;2022-12-07T08:26:53;98986.91;;;16.49;52.11
76106;BME280;64832;45.274;5.880;2022-12-07T08:29:19;98994.31;;;16.60;51.88
76106;BME280;64832;45.274;5.880;2022-12-07T08:31:45;98991.13;;;16.70;51.75
76106;BME280;64832;45.274;5.880;2022-12-07T08:34:11;98999.97;;;16.77;51.49
76106;BME280;64832;45.274;5.880;2022-12-07T08:36:37;98996.44;;;16.76;51.99
76106;BME280;64832;45.274;5.880;2022-12-07T08:39:03;99006.34;;;16.82;51.86
76106;BME280;64832;45.274;5.880;2022-12-07T08:41:28;98998.69;;;16.79;52.08
76106;BME280;64832;45.274;5.880;2022-12-07T08:43:54;98993.97;;;16.75;52.39
76106;BME280;64832;45.274;5.880;2022-12-07T08:46:20;99007.47;;;16.75;52.39
76106;BME280;64832;45.274;5.880;2022-12-07T08:48:51;99003.09;;;16.74;52.54
76106;BME280;64832;45.274;5.880;2022-12-07T08:51:18;98994.47;;;16.65;52.89
76106;BME280;64832;45.274;5.880;2022-12-07T08:53:44;99000.06;;;16.70;52.92
76106;BME280;64832;45.274;5.880;2022-12-07T08:56:10;99006.50;;;16.69;52.18
76106;BME280;64832;45.274;5.880;2022-12-07T08:58:37;98993.72;;;16.58;52.74
76106;BME280;64832;45.274;5.880;2022-12-07T09:01:03;99011.44;;;16.72;53.05
76106;BME280;64832;45.274;5.880;2022-12-07T09:03:29;99009.63;;;16.66;53.06
76106;BME280;64832;45.274;5.880;2022-12-07T09:05:55;99007.53;;;16.68;52.92
76106;BME280;64832;45.274;5.880;2022-12-07T09:08:22;99020.22;;;16.68;52.73
76106;BME280;64832;45.274;5.880;2022-12-07T09:10:51;99018.13;;;16.70;52.78
76106;BME280;64832;45.274;5.880;2022-12-07T09:13:16;99006.50;;;16.69;53.13
76106;BME280;64832;45.274;5.880;2022-12-07T09:15:41;99010.84;;;16.70;52.76
76106;BME280;64832;45.274;5.880;2022-12-07T09:18:07;99011.44;;;16.72;52.95
76106;BME280;64832;45.274;5.880;2022-12-07T09:20:32;99013.47;;;16.77;52.92
76106;BME280;64832;45.274;5.880;2022-12-07T09:22:59;98998.94;;;16.78;52.47
76106;BME280;64832;45.274;5.880;2022-12-07T09:25:24;99015.81;;;16.91;52.51
76106;BME280;64832;45.274;5.880;2022-12-07T09:27:55;99014.09;;;16.97;52.66
76106;BME280;64832;45.274;5.880;2022-12-07T09:30:21;99016.13;;;17.01;52.33
76106;BME280;64832;45.274;5.880;2022-12-07T09:32:47;99014.03;;;17.03;52.24
76106;BME280;64832;45.274;5.880;2022-12-07T09:35:12;99013.34;;;17.08;52.25
76106;BME280;64832;45.274;5.880;2022-12-07T09:37:37;99020.78;;;17.13;52.22
76106;BME280;64832;45.274;5.880;2022-12-07T09:40:04;99021.16;;;17.16;52.19
76106;BME280;64832;45.274;5.880;2022-12-07T09:44:59;99014.47;;;17.19;52.34
76106;BME280;64832;45.274;5.880;2022-12-07T09:47:25;99019.56;;;17.27;52.21
76106;BME280;64832;45.274;5.880;2022-12-07T09:49:51;99014.41;;;17.25;51.70
76106;BME280;64832;45.274;5.880;2022-12-07T09:52:22;99019.38;;;17.28;52.06
76106;BME280;64832;45.274;5.880;2022-12-07T09:54:50;99021.97;;;17.35;51.74
76106;BME280;64832;45.274;5.880;2022-12-07T09:57:17;99021.97;;;17.35;51.72
76106;BME280;64832;45.274;5.880;2022-12-07T09:59:42;99015.84;;;17.28;51.95
76106;BME280;64832;45.274;5.880;2022-12-07T10:02:25;99011.72;;;17.25;51.90
76106;BME280;64832;45.274;5.880;2022-12-07T10:04:53;99005.31;;;17.20;51.77
76106;BME280;64832;45.274;5.880;2022-12-07T10:07:18;99002.69;;;17.13;52.06
76106;BME280;64832;45.274;5.880;2022-12-07T10:09:44;99008.69;;;17.15;52.42
76106;BME280;64832;45.274;5.880;2022-12-07T10:12:11;98997.06;;;17.15;52.22
76106;BME280;64832;45.274;5.880;2022-12-07T10:14:48;98991.50;;;17.10;52.42
76106;BME280;64832;45.274;5.880;2022-12-07T10:17:35;98991.28;;;17.11;52.10
76106;BME280;64832;45.274;5.880;2022-12-07T10:20:24;98981.31;;;17.12;52.15
76106;BME280;64832;45.274;5.880;2022-12-07T10:23:00;98980.69;;;17.10;52.51
76106;BME280;64832;45.274;5.880;2022-12-07T10:25:29;98978.81;;;17.10;52.27
76106;BME280;64832;45.274;5.880;2022-12-07T10:28:18;98976.34;;;17.09;52.35
76106;BME280;64832;45.274;5.880;2022-12-07T10:31:00;98973.66;;;17.09;52.88
76106;BME280;64832;45.274;5.880;2022-12-07T10:35:54;98963.88;;;17.08;52.48
76106;BME280;64832;45.274;5.880;2022-12-07T10:38:20;98964.47;;;17.10;52.29
76106;BME280;64832;45.274;5.880;2022-12-07T10:40:46;98969.88;;;17.10;52.50
76106;BME280;64832;45.274;5.880;2022-12-07T10:51:40;98953.31;;;17.06;52.77
76106;BME280;64832;45.274;5.880;2022-12-07T10:54:09;98964.03;;;17.13;52.47
76106;BME280;64832;45.274;5.880;2022-12-07T10:56:51;98955.69;;;17.14;52.84
76106;BME280;64832;45.274;5.880;2022-12-07T11:05:28;98946.06;;;17.36;52.22
76106;BME280;64832;45.274;5.880;2022-12-07T11:10:50;98932.22;;;17.44;51.78
76106;BME280;64832;45.274;5.880;2022-12-07T11:13:22;98934.47;;;17.47;51.80
76106;BME280;64832;45.274;5.880;2022-12-07T11:16:16;98923.97;;;17.51;51.99
76106;BME280;64832;45.274;5.880;2022-12-07T11:24:19;98919.56;;;17.56;51.51
76106;BME280;64832;45.274;5.880;2022-12-07T11:37:39;98923.16;;;17.69;51.27
76106;BME280;64832;45.274;5.880;2022-12-07T11:42:48;98907.28;;;17.72;51.43
76106;BME280;64832;45.274;5.880;2022-12-07T11:45:23;98905.53;;;17.78;51.70
76106;BME280;64832;45.274;5.880;2022-12-07T11:48:09;98899.03;;;17.79;51.45
76106;BME280;64832;45.274;5.880;2022-12-07T11:50:56;98900.25;;;17.83;51.41
76106;BME280;64832;45.274;5.880;2022-12-07T11:53:42;98903.78;;;17.83;51.15
76106;BME280;64832;45.274;5.880;2022-12-07T12:04:34;98896.59;;;17.89;51.36
76106;BME280;64832;45.274;5.880;2022-12-07T12:06:49;98888.25;;;17.90;51.50
76106;BME280;64832;45.274;5.880;2022-12-07T12:09:30;98882.25;;;17.88;51.42
76106;BME280;64832;45.274;5.880;2022-12-07T12:22:32;98878.25;;;18.02;51.06
76106;BME280;64832;45.274;5.880;2022-12-07T12:24:59;98884.50;;;18.03;51.14
76106;BME280;64832;45.274;5.880;2022-12-07T12:27:27;98885.91;;;18.05;51.08
76106;BME280;64832;45.274;5.880;2022-12-07T12:29:58;98874.72;;;18.02;50.97
76106;BME280;64832;45.274;5.880;2022-12-07T12:35:19;98884.16;;;18.11;50.83
76106;BME280;64832;45.274;5.880;2022-12-07T12:37:46;98885.56;;;18.13;52.04
76106;BME280;64832;45.274;5.880;2022-12-07T12:42:54;98884.38;;;18.21;54.39
76106;BME280;64832;45.274;5.880;2022-12-07T12:45:28;98888.50;;;18.24;55.09
76106;BME280;64832;45.274;5.880;2022-12-07T12:48:03;98886.16;;;18.27;55.11
76106;BME280;64832;45.274;5.880;2022-12-07T12:50:38;98883.44;;;18.27;55.24
76106;BME280;64832;45.274;5.880;2022-12-07T13:00:45;98882.97;;;16.94;45.78
76106;BME280;64832;45.274;5.880;2022-12-07T13:03:31;98884.41;;;16.42;49.50
76106;BME280;64832;45.274;5.880;2022-12-07T13:08:49;98873.66;;;17.09;50.36
76106;BME280;64832;45.274;5.880;2022-12-07T13:13:43;98869.38;;;17.60;49.66
76106;BME280;64832;45.274;5.880;2022-12-07T13:28:46;98848.81;;;18.29;49.11
76106;BME280;64832;45.274;5.880;2022-12-07T13:34:03;98842.81;;;18.39;48.88
76106;BME280;64832;45.274;5.880;2022-12-07T13:36:32;98840.69;;;18.41;48.71
76106;BME280;64832;45.274;5.880;2022-12-07T13:39:16;98837.66;;;18.49;48.74
76106;BME280;64832;45.274;5.880;2022-12-07T13:41:42;98832.44;;;18.47;49.29
76106;BME280;64832;45.274;5.880;2022-12-07T13:44:13;98830.34;;;18.49;48.84
76106;BME280;64832;45.274;5.880;2022-12-07T13:49:37;98826.69;;;18.55;48.87
76106;BME280;64832;45.274;5.880;2022-12-07T13:54:49;98837.97;;;18.64;49.02
76106;BME280;64832;45.274;5.880;2022-12-07T13:57:16;98826.31;;;18.63;49.05
76106;BME280;64832;45.274;5.880;2022-12-07T13:59:42;98834.06;;;18.71;48.98
76106;BME280;64832;45.274;5.880;2022-12-07T14:02:31;98827.34;;;18.74;48.97
76106;BME280;64832;45.274;5.880;2022-12-07T14:05:14;98831.19;;;18.78;48.83
76106;BME280;64832;45.274;5.880;2022-12-07T14:13:37;98828.84;;;18.82;48.55
76106;BME280;64832;45.274;5.880;2022-12-07T14:18:53;98837.31;;;18.85;48.38
76106;BME280;64832;45.274;5.880;2022-12-07T14:21:21;98825.44;;;18.86;48.47
76106;BME280;64832;45.274;5.880;2022-12-07T14:26:33;98831.31;;;18.83;49.01
76106;BME280;64832;45.274;5.880;2022-12-07T14:31:50;98839.09;;;18.80;49.36
76106;BME280;64832;45.274;5.880;2022-12-07T14:34:15;98837.69;;;18.77;49.39
76106;BME280;64832;45.274;5.880;2022-12-07T14:36:41;98834.41;;;18.75;49.79
76106;BME280;64832;45.274;5.880;2022-12-07T14:39:06;98836.88;;;18.76;49.80
76106;BME280;64832;45.274;5.880;2022-12-07T14:41:31;98838.28;;;18.79;49.94
76106;BME280;64832;45.274;5.880;2022-12-07T14:44:16;98833.22;;;18.83;50.10
76106;BME280;64832;45.274;5.880;2022-12-07T14:46:42;98836.13;;;18.81;50.23
76106;BME280;64832;45.274;5.880;2022-12-07T14:49:07;98835.56;;;18.79;50.19
76106;BME280;64832;45.274;5.880;2022-12-07T14:51:33;98828.50;;;18.78;50.53
76106;BME280;64832;45.274;5.880;2022-12-07T14:54:01;98835.91;;;18.83;50.41
76106;BME280;64832;45.274;5.880;2022-12-07T14:56:26;98828.00;;;18.81;50.93
76106;BME280;64832;45.274;5.880;2022-12-07T14:58:53;98826.69;;;18.84;50.90
76106;BME280;64832;45.274;5.880;2022-12-07T15:01:18;98824.34;;;18.87;50.94
76106;BME280;64832;45.274;5.880;2022-12-07T15:03:43;98832.00;;;18.90;50.89
76106;BME280;64832;45.274;5.880;2022-12-07T15:06:13;98828.13;;;18.86;50.83
76106;BME280;64832;45.274;5.880;2022-12-07T15:08:39;98820.97;;;18.80;50.97
76106;BME280;64832;45.274;5.880;2022-12-07T15:11:04;98821.44;;;18.77;50.93
76106;BME280;64832;45.274;5.880;2022-12-07T15:13:30;98809.91;;;18.70;50.91
76106;BME280;64832;45.274;5.880;2022-12-07T15:16:16;98807.66;;;18.67;50.94
76106;BME280;64832;45.274;5.880;2022-12-07T15:18:44;98805.47;;;18.64;50.90
76106;BME280;64832;45.274;5.880;2022-12-07T15:21:13;98810.53;;;18.60;50.76
76106;BME280;64832;45.274;5.880;2022-12-07T15:23:39;98803.94;;;18.56;50.92
76106;BME280;64832;45.274;5.880;2022-12-07T15:26:05;98817.72;;;18.55;50.86
76106;BME280;64832;45.274;5.880;2022-12-07T15:28:30;98816.31;;;18.52;50.91
76106;BME280;64832;45.274;5.880;2022-12-07T15:30:55;98813.28;;;18.49;50.88
76106;BME280;64832;45.274;5.880;2022-12-07T15:33:21;98817.84;;;18.48;50.71
76106;BME280;64832;45.274;5.880;2022-12-07T15:35:46;98811.59;;;18.48;50.95
76106;BME280;64832;45.274;5.880;2022-12-07T15:38:12;98814.53;;;18.46;50.83
76106;BME280;64832;45.274;5.880;2022-12-07T15:40:38;98811.25;;;18.44;50.82
76106;BME280;64832;45.274;5.880;2022-12-07T15:43:04;98802.03;;;18.45;51.06
76106;BME280;64832;45.274;5.880;2022-12-07T15:45:29;98792.78;;;18.41;51.05
76106;BME280;64832;45.274;5.880;2022-12-07T15:47:55;98795.47;;;18.41;51.07
76106;BME280;64832;45.274;5.880;2022-12-07T15:50:21;98800.66;;;18.43;50.85
76106;BME280;64832;45.274;5.880;2022-12-07T15:52:46;98791.13;;;18.40;51.06
76106;BME280;64832;45.274;5.880;2022-12-07T15:55:12;98793.25;;;18.38;50.95
76106;BME280;64832;45.274;5.880;2022-12-07T15:57:38;98794.06;;;18.39;51.09
76106;BME280;64832;45.274;5.880;2022-12-07T16:00:05;98796.78;;;18.39;51.03
76106;BME280;64832;45.274;5.880;2022-12-07T16:02:31;98796.19;;;18.37;51.21
76106;BME280;64832;45.274;5.880;2022-12-07T16:04:56;98803.00;;;18.39;50.88
76106;BME280;64832;45.274;5.880;2022-12-07T16:07:22;98797.94;;;18.43;50.96
76106;BME280;64832;45.274;5.880;2022-12-07T16:09:48;98797.84;;;18.49;52.13
76106;BME280;64832;45.274;5.880;2022-12-07T16:12:15;98783.47;;;18.49;52.46
76106;BME280;64832;45.274;5.880;2022-12-07T16:14:40;98787.56;;;18.63;52.54
76106;BME280;64832;45.274;5.880;2022-12-07T16:17:07;98785.63;;;18.75;52.63
76106;BME280;64832;45.274;5.880;2022-12-07T16:19:34;98783.47;;;18.89;52.72
76106;BME280;64832;45.274;5.880;2022-12-07T16:22:00;98777.03;;;18.95;52.61
76106;BME280;64832;45.274;5.880;2022-12-07T16:24:25;98772.44;;;18.95;52.24
76106;BME280;64832;45.274;5.880;2022-12-07T16:26:51;98775.66;;;18.92;52.27
76106;BME280;64832;45.274;5.880;2022-12-07T16:29:18;98776.97;;;18.90;52.25
76106;BME280;64832;45.274;5.880;2022-12-07T16:31:44;98773.31;;;18.84;52.20
76106;BME280;64832;45.274;5.880;2022-12-07T16:34:10;98779.22;;;18.81;52.31
76106;BME280;64832;45.274;5.880;2022-12-07T16:36:35;98775.59;;;18.75;52.15
76106;BME280;64832;45.274;5.880;2022-12-07T16:39:02;98772.66;;;18.77;52.55
76106;BME280;64832;45.274;5.880;2022-12-07T16:41:27;98778.31;;;18.75;52.35
76106;BME280;64832;45.274;5.880;2022-12-07T16:43:53;98779.97;;;18.76;52.46
76106;BME280;64832;45.274;5.880;2022-12-07T16:46:19;98781.28;;;18.74;52.01
76106;BME280;64832;45.274;5.880;2022-12-07T16:48:44;98778.56;;;18.74;52.42
76106;BME280;64832;45.274;5.880;2022-12-07T16:51:12;98777.16;;;18.71;52.11
76106;BME280;64832;45.274;5.880;2022-12-07T16:53:39;98778.78;;;18.72;52.18
76106;BME280;64832;45.274;5.880;2022-12-07T16:56:12;98784.22;;;18.72;52.19
76106;BME280;64832;45.274;5.880;2022-12-07T16:58:38;98779.78;;;18.66;51.96
76106;BME280;64832;45.274;5.880;2022-12-07T17:01:15;98794.47;;;18.70;51.92
76106;BME280;64832;45.274;5.880;2022-12-07T17:03:41;98800.97;;;18.69;52.23
76106;BME280;64832;45.274;5.880;2022-12-07T17:06:15;98784.72;;;18.69;52.04
76106;BME280;64832;45.274;5.880;2022-12-07T17:08:41;98790.94;;;18.70;52.05
76106;BME280;64832;45.274;5.880;2022-12-07T17:11:12;98795.03;;;18.72;52.11
76106;BME280;64832;45.274;5.880;2022-12-07T17:13:38;98786.59;;;18.69;52.08
76106;BME280;64832;45.274;5.880;2022-12-07T17:16:22;98787.16;;;18.71;52.10
76106;BME280;64832;45.274;5.880;2022-12-07T17:18:47;98782.59;;;18.71;52.31
76106;BME280;64832;45.274;5.880;2022-12-07T17:21:13;98781.75;;;18.71;52.03
76106;BME280;64832;45.274;5.880;2022-12-07T17:23:38;98780.94;;;18.70;52.68
76106;BME280;64832;45.274;5.880;2022-12-07T17:26:08;98781.75;;;18.71;52.39
76106;BME280;64832;45.274;5.880;2022-12-07T17:28:35;98775.75;;;18.69;52.23
76106;BME280;64832;45.274;5.880;2022-12-07T17:31:00;98765.97;;;18.68;52.41
76106;BME280;64832;45.274;5.880;2022-12-07T17:33:26;98767.84;;;18.67;52.41
76106;BME280;64832;45.274;5.880;2022-12-07T17:35:51;98767.03;;;18.67;52.50
76106;BME280;64832;45.274;5.880;2022-12-07T17:38:17;98763.25;;;18.68;52.26
76106;BME280;64832;45.274;5.880;2022-12-07T17:40:42;98757.63;;;18.69;52.41
76106;BME280;64832;45.274;5.880;2022-12-07T17:43:07;98760.91;;;18.71;52.04
76106;BME280;64832;45.274;5.880;2022-12-07T17:45:33;98759.25;;;18.70;51.95
76106;BME280;64832;45.274;5.880;2022-12-07T17:47:59;98761.97;;;18.70;51.96
76106;BME280;64832;45.274;5.880;2022-12-07T17:50:24;98755.72;;;18.70;51.58
76106;BME280;64832;45.274;5.880;2022-12-07T17:53:10;98751.94;;;18.71;52.07
76106;BME280;64832;45.274;5.880;2022-12-07T17:55:35;98752.28;;;18.74;51.97
76106;BME280;64832;45.274;5.880;2022-12-07T17:58:01;98753.91;;;18.75;51.94
76106;BME280;64832;45.274;5.880;2022-12-07T18:00:26;98752.03;;;18.76;51.84
76106;BME280;64832;45.274;5.880;2022-12-07T18:02:52;98749.81;;;18.73;52.01
76106;BME280;64832;45.274;5.880;2022-12-07T18:05:17;98764.53;;;18.77;52.10
76106;BME280;64832;45.274;5.880;2022-12-07T18:07:42;98761.25;;;18.75;52.07
76106;BME280;64832;45.274;5.880;2022-12-07T18:10:08;98756.41;;;18.77;52.15
76106;BME280;64832;45.274;5.880;2022-12-07T18:12:36;98759.13;;;18.77;52.13
76106;BME280;64832;45.274;5.880;2022-12-07T18:15:02;98749.31;;;18.76;52.16
76106;BME280;64832;45.274;5.880;2022-12-07T18:17:27;98750.16;;;18.76;52.20
76106;BME280;64832;45.274;5.880;2022-12-07T18:19:53;98755.84;;;18.75;52.17
76106;BME280;64832;45.274;5.880;2022-12-07T18:22:18;98745.47;;;18.72;52.13
76106;BME280;64832;45.274;5.880;2022-12-07T18:24:44;98755.22;;;18.73;52.09
76106;BME280;64832;45.274;5.880;2022-12-07T18:27:09;98751.50;;;18.62;48.37
76106;BME280;64832;45.274;5.880;2022-12-07T18:29:35;98752.84;;;18.48;48.85
76106;BME280;64832;45.274;5.880;2022-12-07T18:32:00;98740.13;;;18.37;49.42
76106;BME280;64832;45.274;5.880;2022-12-07T18:34:25;98745.56;;;18.49;50.57
76106;BME280;64832;45.274;5.880;2022-12-07T18:36:53;98754.84;;;18.53;50.66
76106;BME280;64832;45.274;5.880;2022-12-07T18:39:20;98751.63;;;18.56;50.62
76106;BME280;64832;45.274;5.880;2022-12-07T18:41:46;98762.59;;;18.61;50.52
76106;BME280;64832;45.274;5.880;2022-12-07T18:44:12;98753.16;;;18.63;50.66
76106;BME280;64832;45.274;5.880;2022-12-07T18:46:38;98755.41;;;18.66;50.89
76106;BME280;64832;45.274;5.880;2022-12-07T18:49:05;98750.53;;;18.68;50.85
76106;BME280;64832;45.274;5.880;2022-12-07T18:51:30;98741.38;;;18.69;50.92
76106;BME280;64832;45.274;5.880;2022-12-07T18:53:56;98746.53;;;18.71;51.07
76106;BME280;64832;45.274;5.880;2022-12-07T18:56:24;98744.06;;;18.69;50.85
76106;BME280;64832;45.274;5.880;2022-12-07T18:58:55;98735.69;;;18.71;50.86
76106;BME280;64832;45.274;5.880;2022-12-07T19:01:41;98744.38;;;18.73;51.04
76106;BME280;64832;45.274;5.880;2022-12-07T19:04:07;98742.28;;;18.75;51.03
76106;BME280;64832;45.274;5.880;2022-12-07T19:06:32;98740.63;;;18.74;51.08
76106;BME280;64832;45.274;5.880;2022-12-07T19:08:58;98751.22;;;18.75;51.04
76106;BME280;64832;45.274;5.880;2022-12-07T19:11:29;98754.75;;;18.76;51.09
76106;BME280;64832;45.274;5.880;2022-12-07T19:14:28;98752.59;;;18.78;51.36
76106;BME280;64832;45.274;5.880;2022-12-07T19:16:59;98751.56;;;18.79;51.04
76106;BME280;64832;45.274;5.880;2022-12-07T19:19:33;98749.69;;;18.80;51.38
76106;BME280;64832;45.274;5.880;2022-12-07T19:21:59;98741.06;;;18.83;51.06
76106;BME280;64832;45.274;5.880;2022-12-07T19:24:25;98741.06;;;18.83;51.76
76106;BME280;64832;45.274;5.880;2022-12-07T19:26:51;98740.81;;;18.84;51.61
76106;BME280;64832;45.274;5.880;2022-12-07T19:29:16;98740.59;;;18.86;51.37
76106;BME280;64832;45.274;5.880;2022-12-07T19:31:42;98734.91;;;18.87;51.36
76106;BME280;64832;45.274;5.880;2022-12-07T19:34:12;98735.72;;;18.88;51.47
76106;BME280;64832;45.274;5.880;2022-12-07T19:36:38;98737.38;;;18.89;51.80
76106;BME280;64832;45.274;5.880;2022-12-07T19:39:04;98736.06;;;18.91;51.58
76106;BME280;64832;45.274;5.880;2022-12-07T19:41:30;98733.59;;;18.90;51.73
76106;BME280;64832;45.274;5.880;2022-12-07T19:44:03;98743.13;;;18.92;52.00
76106;BME280;64832;45.274;5.880;2022-12-07T19:46:29;98729.81;;;18.91;52.00
76106;BME280;64832;45.274;5.880;2022-12-07T19:48:55;98726.84;;;18.92;51.95
76106;BME280;64832;45.274;5.880;2022-12-07T19:51:22;98725.22;;;18.91;52.29
76106;BME280;64832;45.274;5.880;2022-12-07T19:53:47;98723.34;;;18.92;52.42
76106;BME280;64832;45.274;5.880;2022-12-07T19:56:18;98731.22;;;18.93;52.36
76106;BME280;64832;45.274;5.880;2022-12-07T19:58:43;98734.75;;;18.94;52.92
76106;BME280;64832;45.274;5.880;2022-12-07T20:01:09;98726.84;;;18.92;52.81
76106;BME280;64832;45.274;5.880;2022-12-07T20:03:34;98717.41;;;18.95;52.64
76106;BME280;64832;45.274;5.880;2022-12-07T20:06:00;98716.63;;;18.94;52.54
76106;BME280;64832;45.274;5.880;2022-12-07T20:08:26;98720.13;;;18.95;52.53
76106;BME280;64832;45.274;5.880;2022-12-07T20:10:52;98714.69;;;18.95;52.48
76106;BME280;64832;45.274;5.880;2022-12-07T20:13:18;98715.31;;;18.97;52.56
76106;BME280;64832;45.274;5.880;2022-12-07T20:15:54;98713.38;;;18.97;52.63
76106;BME280;64832;45.274;5.880;2022-12-07T20:18:20;98714.22;;;18.98;52.56
76106;BME280;64832;45.274;5.880;2022-12-07T20:20:56;98715.03;;;18.98;52.56
76106;BME280;64832;45.274;5.880;2022-12-07T20:23:26;98710.69;;;18.97;52.55
76106;BME280;64832;45.274;5.880;2022-12-07T20:25:51;98712.09;;;19.00;52.64
76106;BME280;64832;45.274;5.880;2022-12-07T20:28:17;98711.50;;;18.98;52.45
76106;BME280;64832;45.274;5.880;2022-12-07T20:30:51;98712.09;;;19.00;52.44
76106;BME280;64832;45.274;5.880;2022-12-07T20:33:18;98712.91;;;19.00;52.68
76106;BME280;64832;45.274;5.880;2022-12-07T20:35:43;98709.63;;;18.98;52.52
76106;BME280;64832;45.274;5.880;2022-12-07T20:38:10;98718.09;;;19.02;52.46
76106;BME280;64832;45.274;5.880;2022-12-07T20:40:36;98719.16;;;19.01;52.19
76106;BME280;64832;45.274;5.880;2022-12-07T20:43:02;98718.66;;;19.04;52.53
76106;BME280;64832;45.274;5.880;2022-12-07T20:45:27;98714.91;;;19.05;52.42
76106;BME280;64832;45.274;5.880;2022-12-07T20:47:53;98722.53;;;19.08;52.22
76106;BME280;64832;45.274;5.880;2022-12-07T20:50:18;98724.78;;;19.11;52.50
76106;BME280;64832;45.274;5.880;2022-12-07T20:52:44;98711.22;;;19.11;52.47
76106;BME280;64832;45.274;5.880;2022-12-07T20:55:09;98717.44;;;19.11;52.46
76106;BME280;64832;45.274;5.880;2022-12-07T20:57:35;98713.41;;;19.14;52.42
76106;BME280;64832;45.274;5.880;2022-12-07T21:00:00;98713.41;;;19.14;52.38